KRKD/RKD METAR and TAF weather

Enter ICAO airport designator
Station Type Date Time Source
KRKD METAR 2020/09/30 14:56 UTC NOAA

KRKD 301456Z AUTO 20022G35KT 5SM BR OVC005 19/19 A2948 RMK AO2 PK WND 20035/1454 RAE45 SLP981 P0000 60001 T01940194 56009


Station Type Date Time Source
KRKD Decoded METAR 2020/09/30 14:56 UTC NOAA

Rockland, Knox County Regional Airport, ME, United States (KRKD) 44-04N 069-06W
Sep 30, 2020 - 10:56 AM EDT / 2020.09.30 1456 UTC
Wind: from the SSW (200 degrees) at 25 MPH (22 KT) gusting to 40 MPH (35 KT):0
Visibility: 5 mile(s):0
Sky conditions: overcast
Weather: mist
Precipitation last hour: A trace
Temperature: 66.9 F (19.4 C)
Dew Point: 66.9 F (19.4 C)
Relative Humidity: 100%
Pressure (altimeter): 29.48 in. Hg (998 hPa)
Pressure tendency: 0.03 inches (0.9 hPa) lower than three hours ago
ob: KRKD 301456Z AUTO 20022G35KT 5SM BR OVC005 19/19 A2948 RMK AO2 PK WND 20035/1454 RAE45 SLP981 P0000 60001 T01940194 56009
cycle: 15

Station Type Date Time Source
KRKD TAF 2020/09/30 14:18 UTC NOAA

TAF
AMD KRKD 301415Z 3014/0112 17024G36KT 5SM -RA BR OVC003 WS020/19065KT
FM301800 23015G23KT 3SM -SHRA OVC025 WS020/21050KT
FM302100 27012G20KT P6SM SCT250

Example: see airport list